Time,TemperatureF,DewpointF,PressureIn,WindDirection,WindDirectionDegrees,WindSpeedMPH,WindSpeedGustMPH,Humidity,HourlyPrecipIn,Conditions,Clouds,dailyrainin,SoftwareType,DateUTC
2013-01-03 00:16:00,65.8,64.0,30.04,SSE,166,0.0,0.0,95,0.00,,,0.00,weatherlink.com 1.10,2013-01-03 05:16:00,
2013-01-03 00:31:00,65.6,64.0,30.04,SSE,166,0.0,1.0,95,0.00,,,0.00,weatherlink.com 1.10,2013-01-03 05:31:00,
2013-01-03 00:46:00,65.8,65.0,30.04,SSE,166,0.0,0.0,96,0.00,,,0.00,weatherlink.com 1.10,2013-01-03 05:46:00,
2013-01-03 01:02:00,66.6,66.0,30.04,SSE,166,0.0,2.0,96,0.00,,,0.00,weatherlink.com 1.10,2013-01-03 06:02:00,
2013-01-03 01:17:00,66.3,65.0,30.04,SSE,166,0.0,2.0,96,0.00,,,0.00,weatherlink.com 1.10,2013-01-03 06:17:00,
2013-01-03 01:31:00,66.2,65.0,30.04,SSE,166,0.0,2.0,95,0.00,,,0.00,weatherlink.com 1.10,2013-01-03 06:31:00,
2013-01-03 01:47:00,66.1,65.0,30.04,SSE,166,0.0,1.0,96,0.00,,,0.00,weatherlink.com 1.10,2013-01-03 06:47:00,
2013-01-03 02:02:00,65.8,65.0,30.05,SSE,166,0.0,1.0,96,0.01,,,0.01,weatherlink.com 1.10,2013-01-03 07:02:00,
2013-01-03 02:17:00,65.4,64.0,30.04,SSE,166,0.0,1.0,95,0.01,,,0.01,weatherlink.com 1.10,2013-01-03 07:17:00,
2013-01-03 02:32:00,65.2,64.0,30.04,SSE,166,0.0,2.0,96,0.01,,,0.01,weatherlink.com 1.10,2013-01-03 07:32:00,
2013-01-03 02:47:00,65.0,64.0,30.04,SSE,166,1.0,2.0,96,0.01,,,0.01,weatherlink.com 1.10,2013-01-03 07:47:00,
2013-01-03 03:02:00,64.6,64.0,30.04,SSE,166,0.0,0.0,96,0.00,,,0.01,weatherlink.com 1.10,2013-01-03 08:02:00,
2013-01-03 03:17:00,64.6,64.0,30.04,SSE,166,0.0,4.0,96,0.00,,,0.01,weatherlink.com 1.10,2013-01-03 08:17:00,
2013-01-03 03:31:00,64.2,63.0,30.04,SSE,166,2.0,4.0,96,0.00,,,0.01,weatherlink.com 1.10,2013-01-03 08:31:00,
2013-01-03 03:46:00,64.0,63.0,30.04,SSE,166,1.0,3.0,96,0.00,,,0.01,weatherlink.com 1.10,2013-01-03 08:46:00,
2013-01-03 04:01:00,63.9,63.0,30.04,SSE,166,1.0,3.0,96,0.00,,,0.01,weatherlink.com 1.10,2013-01-03 09:01:00,
2013-01-03 04:17:00,63.6,63.0,30.04,SSE,166,0.0,3.0,96,0.00,,,0.01,weatherlink.com 1.10,2013-01-03 09:17:00,
2013-01-03 04:32:00,63.4,62.0,30.03,SSE,166,1.0,3.0,96,0.00,,,0.01,weatherlink.com 1.10,2013-01-03 09:32:00,
2013-01-03 04:47:00,63.3,62.0,30.03,SSE,166,1.0,3.0,96,0.00,,,0.01,weatherlink.com 1.10,2013-01-03 09:47:00,
2013-01-03 05:02:00,63.2,62.0,30.03,SSE,166,1.0,2.0,96,0.00,,,0.01,weatherlink.com 1.10,2013-01-03 10:02:00,
2013-01-03 05:18:00,63.2,62.0,30.04,SSE,166,2.0,4.0,97,0.00,,,0.01,weatherlink.com 1.10,2013-01-03 10:18:00,
2013-01-03 05:32:00,63.3,63.0,30.04,SSE,166,3.0,4.0,97,0.00,,,0.01,weatherlink.com 1.10,2013-01-03 10:32:00,
2013-01-03 05:47:00,63.3,63.0,30.04,SSE,166,2.0,4.0,97,0.00,,,0.01,weatherlink.com 1.10,2013-01-03 10:47:00,
2013-01-03 06:02:00,63.3,63.0,30.05,SSE,166,1.0,4.0,97,0.00,,,0.01,weatherlink.com 1.10,2013-01-03 11:02:00,
2013-01-03 06:17:00,63.0,62.0,30.05,ESE,115,2.0,7.0,97,0.00,,,0.01,weatherlink.com 1.10,2013-01-03 11:17:00,
2013-01-03 06:33:00,62.8,62.0,30.05,SE,127,3.0,4.0,97,0.00,,,0.01,weatherlink.com 1.10,2013-01-03 11:33:00,
2013-01-03 06:48:00,63.0,62.0,30.05,ESE,123,2.0,4.0,97,0.00,,,0.01,weatherlink.com 1.10,2013-01-03 11:48:00,
2013-01-03 07:03:00,62.8,62.0,30.06,ESE,123,1.0,4.0,97,0.00,,,0.01,weatherlink.com 1.10,2013-01-03 12:03:00,
2013-01-03 07:18:00,62.6,62.0,30.06,ESE,123,2.0,2.0,97,0.00,,,0.01,weatherlink.com 1.10,2013-01-03 12:18:00,
2013-01-03 07:34:00,62.8,62.0,30.07,ESE,123,1.0,2.0,97,0.00,,,0.01,weatherlink.com 1.10,2013-01-03 12:34:00,
2013-01-03 07:49:00,63.4,63.0,30.07,ESE,123,0.0,2.0,97,0.00,,,0.01,weatherlink.com 1.10,2013-01-03 12:49:00,
2013-01-03 08:03:00,64.0,63.0,30.08,ESE,123,0.0,2.0,97,0.00,,,0.01,weatherlink.com 1.10,2013-01-03 13:03:00,
2013-01-03 08:19:00,64.6,64.0,30.08,ESE,123,0.0,2.0,97,0.00,,,0.01,weatherlink.com 1.10,2013-01-03 13:19:00,
2013-01-03 08:34:00,64.9,64.0,30.09,ESE,123,1.0,3.0,97,0.00,,,0.01,weatherlink.com 1.10,2013-01-03 13:34:00,
2013-01-03 08:49:00,65.6,65.0,30.09,ESE,123,2.0,3.0,97,0.00,,,0.01,weatherlink.com 1.10,2013-01-03 13:49:00,
2013-01-03 09:04:00,66.1,65.0,30.09,ESE,123,1.0,4.0,96,0.00,,,0.01,weatherlink.com 1.10,2013-01-03 14:04:00,
2013-01-03 09:20:00,67.1,66.0,30.09,ESE,123,2.0,4.0,96,0.00,,,0.01,weatherlink.com 1.10,2013-01-03 14:20:00,
2013-01-03 09:35:00,68.2,67.0,30.10,ESE,123,4.0,5.0,96,0.00,,,0.01,weatherlink.com 1.10,2013-01-03 14:35:00,
2013-01-03 09:49:00,69.0,68.0,30.10,SE,142,2.0,5.0,95,0.00,,,0.01,weatherlink.com 1.10,2013-01-03 14:49:00,
2013-01-03 10:05:00,70.6,69.0,30.09,SE,144,2.0,4.0,93,0.00,,,0.01,weatherlink.com 1.10,2013-01-03 15:05:00,
2013-01-03 10:20:00,71.5,68.0,30.09,ESE,115,3.0,7.0,89,0.00,,,0.01,weatherlink.com 1.10,2013-01-03 15:20:00,
2013-01-03 10:35:00,72.4,69.0,30.09,SE,139,2.0,4.0,88,0.00,,,0.01,weatherlink.com 1.10,2013-01-03 15:35:00,
2013-01-03 10:51:00,73.5,69.0,30.09,SE,126,4.0,4.0,86,0.00,,,0.01,weatherlink.com 1.10,2013-01-03 15:51:00,
2013-01-03 11:06:00,74.7,70.0,30.09,SE,132,2.0,4.0,85,0.00,,,0.01,weatherlink.com 1.10,2013-01-03 16:06:00,
2013-01-03 11:20:00,76.0,71.0,30.08,SE,143,2.0,6.0,83,0.00,,,0.01,weatherlink.com 1.10,2013-01-03 16:20:00,
2013-01-03 11:36:00,76.6,70.0,30.07,South,184,1.0,5.0,81,0.00,,,0.01,weatherlink.com 1.10,2013-01-03 16:36:00,
2013-01-03 11:51:00,76.0,70.0,30.07,SSE,162,1.0,5.0,82,0.00,,,0.01,weatherlink.com 1.10,2013-01-03 16:51:00,
2013-01-03 12:07:00,76.1,70.0,30.05,South,184,2.0,4.0,82,0.00,,,0.01,weatherlink.com 1.10,2013-01-03 17:07:00,
2013-01-03 12:21:00,75.7,70.0,30.05,SSW,198,1.0,4.0,82,0.00,,,0.01,weatherlink.com 1.10,2013-01-03 17:21:00,
2013-01-03 12:36:00,75.6,70.0,30.04,South,187,2.0,5.0,83,0.00,,,0.01,weatherlink.com 1.10,2013-01-03 17:36:00,
2013-01-03 12:51:00,75.8,70.0,30.03,South,175,4.0,6.0,82,0.00,,,0.01,weatherlink.com 1.10,2013-01-03 17:51:00,
2013-01-03 13:06:00,75.6,69.0,30.02,South,184,4.0,6.0,81,0.00,,,0.01,weatherlink.com 1.10,2013-01-03 18:06:00,
2013-01-03 13:22:00,75.3,69.0,30.02,SSE,159,4.0,7.0,81,0.00,,,0.01,weatherlink.com 1.10,2013-01-03 18:22:00,
2013-01-03 13:37:00,74.9,69.0,30.02,South,180,3.0,7.0,82,0.00,,,0.01,weatherlink.com 1.10,2013-01-03 18:37:00,
2013-01-03 13:52:00,74.8,69.0,30.02,SSE,168,6.0,8.0,81,0.00,,,0.01,weatherlink.com 1.10,2013-01-03 18:52:00,
2013-01-03 14:07:00,74.8,69.0,30.02,WSW,253,3.0,6.0,81,0.00,,,0.01,weatherlink.com 1.10,2013-01-03 19:07:00,
2013-01-03 15:08:00,74.3,69.0,30.02,SSE,150,2.0,6.0,83,0.00,,,0.01,weatherlink.com 1.10,2013-01-03 20:08:00,
2013-01-03 15:22:00,74.1,69.0,30.02,SSW,212,3.0,5.0,83,0.00,,,0.01,weatherlink.com 1.10,2013-01-03 20:22:00,
2013-01-03 15:37:00,73.6,69.0,30.02,South,169,4.0,6.0,84,0.00,,,0.01,weatherlink.com 1.10,2013-01-03 20:37:00,
2013-01-03 15:52:00,72.8,68.0,30.02,South,173,4.0,8.0,86,0.00,,,0.01,weatherlink.com 1.10,2013-01-03 20:52:00,
2013-01-03 16:08:00,72.6,69.0,30.03,SSE,167,3.0,7.0,87,0.00,,,0.01,weatherlink.com 1.10,2013-01-03 21:08:00,
2013-01-03 16:23:00,72.4,68.0,30.03,South,179,3.0,5.0,87,0.00,,,0.01,weatherlink.com 1.10,2013-01-03 21:23:00,
2013-01-03 16:37:00,72.3,69.0,30.04,SSE,165,2.0,5.0,88,0.00,,,0.01,weatherlink.com 1.10,2013-01-03 21:37:00,
2013-01-03 16:53:00,72.0,68.0,30.04,SSE,167,0.0,4.0,88,0.00,,,0.01,weatherlink.com 1.10,2013-01-03 21:53:00,
2013-01-03 17:08:00,71.7,68.0,30.04,SSE,167,1.0,6.0,89,0.00,,,0.01,weatherlink.com 1.10,2013-01-03 22:08:00,
2013-01-03 17:23:00,71.4,68.0,30.05,SSE,167,1.0,4.0,89,0.00,,,0.01,weatherlink.com 1.10,2013-01-03 22:23:00,
2013-01-03 17:38:00,71.1,68.0,30.05,SSE,167,1.0,4.0,90,0.00,,,0.01,weatherlink.com 1.10,2013-01-03 22:38:00,
2013-01-03 17:54:00,71.0,68.0,30.05,SSE,167,2.0,5.0,90,0.00,,,0.01,weatherlink.com 1.10,2013-01-03 22:54:00,
2013-01-03 18:09:00,70.8,68.0,30.05,SSE,167,3.0,4.0,90,0.00,,,0.01,weatherlink.com 1.10,2013-01-03 23:09:00,
2013-01-03 18:24:00,70.8,68.0,30.06,SSE,167,0.0,5.0,91,0.00,,,0.01,weatherlink.com 1.10,2013-01-03 23:24:00,
2013-01-03 18:39:00,70.7,68.0,30.07,SSE,167,0.0,3.0,91,0.00,,,0.01,weatherlink.com 1.10,2013-01-03 23:39:00,
2013-01-03 18:54:00,70.7,68.0,30.08,SSE,167,1.0,2.0,91,0.00,,,0.01,weatherlink.com 1.10,2013-01-03 23:54:00,
2013-01-03 19:09:00,70.6,68.0,30.08,SSE,167,0.0,2.0,91,0.00,,,0.01,weatherlink.com 1.10,2013-01-04 00:09:00,
2013-01-03 19:25:00,70.7,68.0,30.09,SSE,167,0.0,2.0,91,0.00,,,0.01,weatherlink.com 1.10,2013-01-04 00:25:00,
2013-01-03 19:39:00,70.6,68.0,30.09,SSE,167,3.0,3.0,91,0.00,,,0.01,weatherlink.com 1.10,2013-01-04 00:39:00,
2013-01-03 19:55:00,70.6,68.0,30.09,SSE,167,2.0,5.0,92,0.00,,,0.01,weatherlink.com 1.10,2013-01-04 00:55:00,
2013-01-03 20:10:00,70.4,68.0,30.09,SSE,167,0.0,4.0,92,0.00,,,0.01,weatherlink.com 1.10,2013-01-04 01:10:00,
2013-01-03 20:25:00,69.9,68.0,30.09,SSE,167,1.0,2.0,92,0.00,,,0.01,weatherlink.com 1.10,2013-01-04 01:25:00,
2013-01-03 20:40:00,70.0,68.0,30.09,SSE,167,0.0,2.0,93,0.00,,,0.01,weatherlink.com 1.10,2013-01-04 01:40:00,
2013-01-03 20:55:00,70.1,68.0,30.09,SSE,167,0.0,1.0,93,0.00,,,0.01,weatherlink.com 1.10,2013-01-04 01:55:00,
2013-01-03 21:10:00,70.3,68.0,30.10,SSE,167,1.0,1.0,93,0.00,,,0.01,weatherlink.com 1.10,2013-01-04 02:10:00,
2013-01-03 21:25:00,70.6,69.0,30.10,SSE,167,1.0,2.0,93,0.00,,,0.01,weatherlink.com 1.10,2013-01-04 02:25:00,
2013-01-03 21:40:00,70.8,69.0,30.10,SSE,167,1.0,3.0,93,0.00,,,0.01,weatherlink.com 1.10,2013-01-04 02:40:00,
2013-01-03 21:55:00,70.9,69.0,30.10,SSE,167,1.0,4.0,93,0.00,,,0.01,weatherlink.com 1.10,2013-01-04 02:55:00,
2013-01-03 22:11:00,70.8,69.0,30.10,SSE,167,0.0,3.0,93,0.00,,,0.01,weatherlink.com 1.10,2013-01-04 03:11:00,
2013-01-03 22:25:00,70.8,69.0,30.11,SSE,167,1.0,2.0,93,0.00,,,0.01,weatherlink.com 1.10,2013-01-04 03:25:00,
2013-01-03 22:40:00,70.8,69.0,30.11,SSE,167,0.0,2.0,93,0.00,,,0.01,weatherlink.com 1.10,2013-01-04 03:40:00,
2013-01-03 22:55:00,70.7,69.0,30.11,SSE,167,0.0,1.0,93,0.00,,,0.01,weatherlink.com 1.10,2013-01-04 03:55:00,
2013-01-03 23:10:00,70.7,69.0,30.11,SSE,167,1.0,1.0,93,0.00,,,0.01,weatherlink.com 1.10,2013-01-04 04:10:00,
2013-01-03 23:25:00,70.7,69.0,30.11,SSE,167,0.0,1.0,94,0.00,,,0.01,weatherlink.com 1.10,2013-01-04 04:25:00,
2013-01-03 23:40:00,70.7,69.0,30.11,SSE,167,0.0,1.0,94,0.00,,,0.01,weatherlink.com 1.10,2013-01-04 04:40:00,
2013-01-03 23:55:00,70.8,69.0,30.10,SSE,167,1.0,1.0,94,0.00,,,0.01,weatherlink.com 1.10,2013-01-04 04:55:00,